createdAt,value
2018-01-14T00:01:33.016Z,14.50
2018-01-14T00:03:59.127Z,15.40
2018-01-14T00:06:26.101Z,17.57
2018-01-14T00:08:52.221Z,15.47
2018-01-14T00:11:18.477Z,15.37
2018-01-14T00:13:44.658Z,15.70
2018-01-14T00:16:11.041Z,16.57
2018-01-14T00:18:37.242Z,14.97
2018-01-14T00:21:03.589Z,16.07
2018-01-14T00:23:29.944Z,16.70
2018-01-14T00:25:56.820Z,15.40
2018-01-14T00:28:23.080Z,16.57
2018-01-14T00:30:49.302Z,15.30
2018-01-14T00:33:15.498Z,16.43
2018-01-14T00:35:41.640Z,13.73
2018-01-14T00:38:07.916Z,16.30
2018-01-14T00:40:34.042Z,15.30
2018-01-14T00:43:00.276Z,14.43
2018-01-14T00:45:27.227Z,14.90
2018-01-14T00:47:54.076Z,14.73
2018-01-14T00:50:21.014Z,15.77
2018-01-14T00:52:47.987Z,15.47
2018-01-14T00:55:14.126Z,14.30
2018-01-14T00:57:40.266Z,14.00
2018-01-14T01:00:06.454Z,14.13
2018-01-14T01:02:32.627Z,12.40
2018-01-14T01:05:00.389Z,12.57
2018-01-14T01:07:27.278Z,14.00
2018-01-14T01:09:53.447Z,13.37
2018-01-14T01:12:19.698Z,12.93
2018-01-14T01:14:46.722Z,11.60
2018-01-14T01:17:12.875Z,13.07
2018-01-14T01:19:39.978Z,11.80
2018-01-14T01:22:06.155Z,10.87
2018-01-14T01:24:33.111Z,12.10
2018-01-14T01:26:59.409Z,11.53
2018-01-14T01:29:25.577Z,12.40
2018-01-14T01:31:51.794Z,10.30
2018-01-14T01:34:18.007Z,11.70
2018-01-14T01:36:44.937Z,11.00
2018-01-14T01:39:11.986Z,11.10
2018-01-14T01:41:38.378Z,11.80
2018-01-14T01:44:04.522Z,10.77
2018-01-14T01:46:30.930Z,11.73
2018-01-14T01:48:57.055Z,11.30
2018-01-14T01:51:23.249Z,11.83
2018-01-14T01:53:49.524Z,11.37
2018-01-14T01:56:15.901Z,11.00
2018-01-14T01:58:42.168Z,11.40
2018-01-14T02:01:08.349Z,10.40
2018-01-14T02:03:35.325Z,10.43
2018-01-14T02:06:01.514Z,10.90
2018-01-14T02:08:27.725Z,10.67
2018-01-14T02:10:54.702Z,9.03
2018-01-14T02:13:20.924Z,9.60
2018-01-14T02:15:47.246Z,8.20
2018-01-14T02:18:14.274Z,8.00
2018-01-14T02:20:41.212Z,8.30
2018-01-14T02:23:07.406Z,7.50
2018-01-14T02:25:33.639Z,7.90
2018-01-14T02:27:59.998Z,7.00
2018-01-14T02:30:27.052Z,7.00
2018-01-14T02:32:54.418Z,7.70
2018-01-14T02:35:20.718Z,7.37
2018-01-14T02:37:47.435Z,7.10
2018-01-14T02:40:13.654Z,6.60
2018-01-14T02:42:40.042Z,7.27
2018-01-14T02:45:06.319Z,8.00
2018-01-14T02:47:32.480Z,8.23
2018-01-14T02:49:59.378Z,8.03
2018-01-14T02:52:25.692Z,7.00
2018-01-14T02:54:51.974Z,6.80
2018-01-14T02:57:18.943Z,6.93
2018-01-14T02:59:45.160Z,6.60
2018-01-14T03:02:12.088Z,6.03
2018-01-14T03:04:38.984Z,6.73
2018-01-14T03:07:05.132Z,7.57
2018-01-14T03:09:31.313Z,6.07
2018-01-14T03:11:57.566Z,7.33
2018-01-14T03:14:23.793Z,7.50
2018-01-14T03:16:50.194Z,7.53
2018-01-14T03:19:16.481Z,6.63
2018-01-14T03:21:42.803Z,7.50
2018-01-14T03:24:09.081Z,7.43
2018-01-14T03:26:35.274Z,7.13
2018-01-14T03:29:02.162Z,7.67
2018-01-14T03:31:28.503Z,7.80
2018-01-14T03:33:54.748Z,7.03
2018-01-14T03:36:20.865Z,7.80
2018-01-14T03:38:47.083Z,7.00
2018-01-14T03:41:13.257Z,7.53
2018-01-14T03:43:40.155Z,7.40
2018-01-14T03:46:06.646Z,7.20
2018-01-14T03:48:32.839Z,7.03
2018-01-14T03:51:00.479Z,6.97
2018-01-14T03:53:26.679Z,7.80
2018-01-14T03:55:52.879Z,7.60
2018-01-14T03:58:19.060Z,7.13
2018-01-14T04:00:46.757Z,7.30
2018-01-14T04:03:13.011Z,7.37
2018-01-14T04:05:40.307Z,7.70
2018-01-14T04:08:06.516Z,7.33
2018-01-14T04:10:32.712Z,7.70
2018-01-14T04:12:58.853Z,8.83
2018-01-14T04:15:25.090Z,8.90
2018-01-14T04:17:51.297Z,7.87
2018-01-14T04:20:17.447Z,8.70
2018-01-14T04:22:43.587Z,8.30
2018-01-14T04:25:10.570Z,8.73
2018-01-14T04:27:36.732Z,10.00
2018-01-14T04:30:03.371Z,10.13
2018-01-14T04:32:29.509Z,10.20
2018-01-14T04:34:55.669Z,9.60
2018-01-14T04:37:22.584Z,9.77
2018-01-14T04:39:48.804Z,10.27
2018-01-14T04:42:15.054Z,9.20
2018-01-14T04:44:41.376Z,9.20
2018-01-14T04:47:09.091Z,9.27
2018-01-14T04:49:35.195Z,9.47
2018-01-14T04:52:01.432Z,10.50
2018-01-14T04:54:27.590Z,8.80
2018-01-14T04:56:53.818Z,8.47
2018-01-14T04:59:19.963Z,9.10
2018-01-14T05:01:47.784Z,9.73
2018-01-14T05:04:13.901Z,9.30
2018-01-14T05:06:40.090Z,10.03
2018-01-14T05:09:06.950Z,9.10
2018-01-14T05:11:33.195Z,10.17
2018-01-14T05:13:59.388Z,9.50
2018-01-14T05:16:26.357Z,9.70
2018-01-14T05:18:52.486Z,8.53
2018-01-14T05:21:18.653Z,9.63
2018-01-14T05:23:44.866Z,9.37
2018-01-14T05:26:11.115Z,9.70
2018-01-14T05:28:38.853Z,9.07
2018-01-14T05:31:05.116Z,9.23
2018-01-14T05:33:31.329Z,9.27
2018-01-14T05:35:57.512Z,9.27
2018-01-14T05:38:23.708Z,9.47
2018-01-14T05:40:50.670Z,8.57
2018-01-14T05:43:16.920Z,8.83
2018-01-14T05:45:43.115Z,9.57
2018-01-14T05:48:09.454Z,9.83
2018-01-14T05:50:35.619Z,9.50
2018-01-14T05:53:01.791Z,9.10
2018-01-14T05:55:28.749Z,9.80
2018-01-14T05:57:54.936Z,9.90
2018-01-14T06:00:21.164Z,10.60
2018-01-14T06:02:47.383Z,10.10
2018-01-14T06:05:13.691Z,9.70
2018-01-14T06:07:39.842Z,9.93
2018-01-14T06:10:06.777Z,10.63
2018-01-14T06:12:33.680Z,9.60
2018-01-14T06:14:59.872Z,10.50
2018-01-14T06:17:27.017Z,10.30
2018-01-14T06:19:54.012Z,9.93
2018-01-14T06:22:20.241Z,9.93
2018-01-14T06:24:46.477Z,10.80
2018-01-14T06:27:12.663Z,12.50
2018-01-14T06:29:38.818Z,10.87
2018-01-14T06:32:05.041Z,10.63
2018-01-14T06:34:31.261Z,10.70
2018-01-14T06:36:57.442Z,11.43
2018-01-14T06:39:24.296Z,10.67
2018-01-14T06:41:50.531Z,11.33
2018-01-14T06:44:16.906Z,11.37
2018-01-14T06:46:43.108Z,11.37
2018-01-14T06:49:09.442Z,9.90
2018-01-14T06:51:35.584Z,10.53
2018-01-14T06:54:01.859Z,12.23
2018-01-14T06:56:28.061Z,11.53
2018-01-14T06:58:55.110Z,11.63
2018-01-14T07:01:22.747Z,12.17
2018-01-14T07:03:49.076Z,11.73
2018-01-14T07:06:15.288Z,11.13
2018-01-14T07:08:41.670Z,12.47
2018-01-14T07:11:08.916Z,12.00
2018-01-14T07:13:36.036Z,11.67
2018-01-14T07:16:03.668Z,12.20
2018-01-14T07:18:30.260Z,12.33
2018-01-14T07:20:57.195Z,11.23
2018-01-14T07:23:24.246Z,11.80
2018-01-14T07:25:51.444Z,10.97
2018-01-14T07:28:17.902Z,12.47
2018-01-14T07:30:44.230Z,11.60
2018-01-14T07:33:12.042Z,12.00
2018-01-14T07:35:38.306Z,13.20
2018-01-14T07:38:04.419Z,13.13
2018-01-14T07:40:30.680Z,12.00
2018-01-14T07:42:57.638Z,15.37
2018-01-14T07:45:24.680Z,13.83
2018-01-14T07:47:51.611Z,13.60
2018-01-14T07:50:19.101Z,12.83
2018-01-14T07:52:46.087Z,13.13
2018-01-14T07:55:12.333Z,13.93
2018-01-14T07:57:38.658Z,15.00
2018-01-14T08:00:04.831Z,13.73
2018-01-14T08:02:31.073Z,12.43
2018-01-14T08:04:57.204Z,12.17
2018-01-14T08:07:23.773Z,13.47
2018-01-14T08:09:49.962Z,13.80
2018-01-14T08:12:16.138Z,12.70
2018-01-14T08:14:43.253Z,12.43
2018-01-14T08:17:09.421Z,11.97
2018-01-14T08:19:36.323Z,13.30
2018-01-14T08:22:02.869Z,12.67
2018-01-14T08:24:29.239Z,13.80
2018-01-14T08:26:56.445Z,13.47
2018-01-14T08:29:22.785Z,13.83
2018-01-14T08:31:50.419Z,13.87
2018-01-14T08:34:16.665Z,13.30
2018-01-14T08:36:43.619Z,13.03
2018-01-14T08:39:10.159Z,12.47
2018-01-14T08:41:37.178Z,13.20
2018-01-14T08:44:03.357Z,12.63
2018-01-14T08:46:30.445Z,13.23
2018-01-14T08:48:56.628Z,13.67
2018-01-14T08:51:23.733Z,12.63
2018-01-14T08:53:50.742Z,11.97
2018-01-14T08:56:16.998Z,13.93
2018-01-14T08:58:43.327Z,13.67
2018-01-14T09:01:09.607Z,13.30
2018-01-14T09:03:35.910Z,14.37
2018-01-14T09:06:02.078Z,14.70
2018-01-14T09:08:28.364Z,15.87
2018-01-14T09:10:54.573Z,23.77
2018-01-14T09:13:20.978Z,21.13
2018-01-14T09:15:47.346Z,16.57
2018-01-14T09:18:14.326Z,15.70
2018-01-14T09:20:40.482Z,15.77
2018-01-14T09:23:06.758Z,14.70
2018-01-14T09:25:33.049Z,14.93
2018-01-14T09:27:59.334Z,14.73
2018-01-14T09:30:38.148Z,15.60
2018-01-14T09:33:04.434Z,15.53
2018-01-14T09:35:30.972Z,16.17
2018-01-14T09:37:57.886Z,14.97
2018-01-14T09:40:24.149Z,14.67
2018-01-14T09:42:50.536Z,14.20
2018-01-14T09:45:16.730Z,15.77
2018-01-14T09:47:43.727Z,14.47
2018-01-14T09:50:10.121Z,14.87
2018-01-14T09:52:36.368Z,14.03
2018-01-14T09:55:02.508Z,13.90
2018-01-14T09:57:28.736Z,14.33
2018-01-14T09:59:55.075Z,14.10
2018-01-14T10:02:21.297Z,14.80
2018-01-14T10:04:47.611Z,14.83
2018-01-14T10:07:13.841Z,13.23
2018-01-14T10:09:39.956Z,14.00
2018-01-14T10:12:06.162Z,14.20
2018-01-14T10:14:32.977Z,15.13
2018-01-14T10:16:59.917Z,16.60
2018-01-14T10:19:27.130Z,18.80
2018-01-14T10:21:53.407Z,16.13
2018-01-14T10:24:20.350Z,14.87
2018-01-14T10:26:47.343Z,13.70
2018-01-14T10:29:13.533Z,14.27
2018-01-14T10:31:39.799Z,14.70
2018-01-14T10:34:06.214Z,14.67
2018-01-14T10:36:32.436Z,15.10
2018-01-14T10:38:58.819Z,13.60
2018-01-14T10:41:25.028Z,14.27
2018-01-14T10:43:51.420Z,14.67
2018-01-14T10:46:18.109Z,15.77
2018-01-14T10:48:44.214Z,14.87
2018-01-14T10:51:10.374Z,13.33
2018-01-14T10:53:37.394Z,14.00
2018-01-14T10:56:04.314Z,14.13
2018-01-14T10:58:30.541Z,15.60
2018-01-14T11:00:57.677Z,14.33
2018-01-14T11:03:23.922Z,16.50
2018-01-14T11:05:50.094Z,19.70
2018-01-14T11:08:17.004Z,14.60
2018-01-14T11:10:43.208Z,14.70
2018-01-14T11:13:09.447Z,14.87
2018-01-14T11:15:35.601Z,18.10
2018-01-14T11:18:02.527Z,15.87
2018-01-14T11:20:28.843Z,15.43
2018-01-14T11:22:55.166Z,13.60
2018-01-14T11:25:21.518Z,14.73
2018-01-14T11:27:49.320Z,13.63
2018-01-14T11:30:15.789Z,13.77
2018-01-14T11:32:41.985Z,13.73
2018-01-14T11:35:08.262Z,14.13
2018-01-14T11:37:34.557Z,13.40
2018-01-14T11:40:01.108Z,13.53
2018-01-14T11:42:27.344Z,15.20
2018-01-14T11:44:53.594Z,13.70
2018-01-14T11:47:19.777Z,13.83
2018-01-14T11:49:45.980Z,12.87
2018-01-14T11:52:12.236Z,13.17
2018-01-14T11:54:38.450Z,13.97
2018-01-14T11:57:04.703Z,13.20
2018-01-14T11:59:31.022Z,12.63
2018-01-14T12:01:57.251Z,11.00
2018-01-14T12:04:23.439Z,10.30
2018-01-14T12:06:49.548Z,11.20
2018-01-14T12:09:15.777Z,9.80
2018-01-14T12:11:42.071Z,9.63
2018-01-14T12:14:09.748Z,9.87
2018-01-14T12:16:36.759Z,10.00
2018-01-14T12:19:03.204Z,9.80
2018-01-14T12:21:29.403Z,8.10
2018-01-14T12:23:55.532Z,13.20
2018-01-14T12:26:21.918Z,10.33
2018-01-14T12:28:48.321Z,9.27
2018-01-14T12:31:16.063Z,11.27
2018-01-14T12:36:43.314Z,7.90
2018-01-14T12:39:09.516Z,9.77
2018-01-14T12:41:35.762Z,7.10
2018-01-14T12:44:02.030Z,7.97
2018-01-14T12:46:29.036Z,10.00
2018-01-14T12:48:55.716Z,8.70
2018-01-14T12:51:22.031Z,7.03
2018-01-14T12:53:48.500Z,8.23
2018-01-14T12:56:15.954Z,8.20
2018-01-14T12:58:42.979Z,7.80
2018-01-14T13:01:11.040Z,7.73
2018-01-14T13:03:38.508Z,6.97
2018-01-14T13:06:05.678Z,7.13
2018-01-14T13:08:32.623Z,7.33
2018-01-14T13:11:00.168Z,7.20
2018-01-14T13:13:27.481Z,7.90
2018-01-14T13:15:53.670Z,7.63
2018-01-14T13:18:20.964Z,6.90
2018-01-14T13:20:47.337Z,7.00
2018-01-14T13:23:14.272Z,7.20
2018-01-14T13:25:41.252Z,21.13
2018-01-14T13:28:07.511Z,13.20
2018-01-14T13:30:33.732Z,8.07
2018-01-14T13:33:00.383Z,9.37
2018-01-14T13:35:26.605Z,8.83
2018-01-14T13:37:52.939Z,8.03
2018-01-14T13:40:19.991Z,8.03
2018-01-14T13:42:46.298Z,14.43
2018-01-14T13:45:12.568Z,14.60
2018-01-14T13:47:39.925Z,8.00
2018-01-14T13:50:06.894Z,8.83
2018-01-14T13:52:33.155Z,8.43
2018-01-14T13:54:59.332Z,9.30
2018-01-14T13:57:25.516Z,8.37
2018-01-14T13:59:51.862Z,10.57
2018-01-14T14:02:17.991Z,10.30
2018-01-14T14:04:45.097Z,10.73
2018-01-14T14:07:11.248Z,10.00
2018-01-14T14:09:37.413Z,9.97
2018-01-14T14:12:03.636Z,13.70
2018-01-14T14:14:30.622Z,16.00
2018-01-14T14:16:56.783Z,11.43
2018-01-14T14:19:23.092Z,10.27
2018-01-14T14:21:49.450Z,8.90
2018-01-14T14:24:16.401Z,7.40
2018-01-14T14:26:43.432Z,11.10
2018-01-14T14:29:10.518Z,10.73
2018-01-14T14:31:36.667Z,8.10
2018-01-14T14:34:03.150Z,7.43
2018-01-14T14:36:30.067Z,8.43
2018-01-14T14:38:57.893Z,9.60
2018-01-14T14:41:24.219Z,8.90
2018-01-14T14:43:50.401Z,10.67
2018-01-14T14:46:17.371Z,8.50
2018-01-14T14:48:43.587Z,9.17
2018-01-14T14:51:10.542Z,8.20
2018-01-14T14:53:36.948Z,7.80
2018-01-14T14:56:04.057Z,8.20
2018-01-14T14:58:30.213Z,7.90
2018-01-14T15:00:56.419Z,8.97
2018-01-14T15:03:22.788Z,7.73
2018-01-14T15:05:49.275Z,7.43
2018-01-14T15:08:15.700Z,7.60
2018-01-14T15:10:41.916Z,7.67
2018-01-14T15:13:08.063Z,7.67
2018-01-14T15:15:34.410Z,8.30
2018-01-14T15:18:02.169Z,8.00
2018-01-14T15:20:29.945Z,8.83
2018-01-14T15:22:56.993Z,9.37
2018-01-14T15:25:23.887Z,7.50
2018-01-14T15:27:50.165Z,10.40
2018-01-14T15:30:17.243Z,9.37
2018-01-14T15:32:43.431Z,8.50
2018-01-14T15:35:10.389Z,8.80
2018-01-14T15:37:37.277Z,8.40
2018-01-14T15:40:03.477Z,7.80
2018-01-14T15:42:29.750Z,8.13
2018-01-14T15:44:55.885Z,10.50
2018-01-14T15:47:22.228Z,56.57
2018-01-14T15:49:49.454Z,15.77
2018-01-14T15:52:15.560Z,9.57
2018-01-14T15:54:41.844Z,10.70
2018-01-14T15:57:09.180Z,9.67
2018-01-14T15:59:36.232Z,7.63
2018-01-14T16:02:03.231Z,7.37
2018-01-14T16:04:29.368Z,17.00
2018-01-14T16:06:56.472Z,13.40
2018-01-14T16:09:22.802Z,8.30
2018-01-14T16:11:49.016Z,9.60
2018-01-14T16:14:15.290Z,7.30
2018-01-14T16:16:41.509Z,7.07
2018-01-14T16:19:07.653Z,6.30
2018-01-14T16:21:33.836Z,6.60
2018-01-14T16:24:00.184Z,6.77
2018-01-14T16:26:26.393Z,7.37
2018-01-14T16:28:53.376Z,6.70
2018-01-14T16:31:19.689Z,9.27
2018-01-14T16:33:46.025Z,9.17
2018-01-14T16:36:12.206Z,9.40
2018-01-14T16:38:38.410Z,8.03
2018-01-14T16:41:05.375Z,8.07
2018-01-14T16:43:31.605Z,6.43
2018-01-14T16:45:57.810Z,7.17
2018-01-14T16:48:24.685Z,6.73
2018-01-14T16:50:51.211Z,8.43
2018-01-14T16:53:17.482Z,7.70
2018-01-14T16:55:43.666Z,9.27
2018-01-14T16:58:09.813Z,10.13
2018-01-14T17:00:36.130Z,8.30
2018-01-14T17:03:02.664Z,7.57
2018-01-14T17:05:28.914Z,8.57
2018-01-14T17:07:55.352Z,7.30
2018-01-14T17:10:21.501Z,7.17
2018-01-14T17:12:47.691Z,7.67
2018-01-14T17:15:13.954Z,7.37
2018-01-14T17:17:40.805Z,7.40
2018-01-14T17:20:07.808Z,7.27
2018-01-14T17:22:33.942Z,9.23
2018-01-14T17:25:00.090Z,10.57
2018-01-14T17:27:26.511Z,11.30
2018-01-14T17:29:52.891Z,11.23
2018-01-14T17:32:19.369Z,11.13
2018-01-14T17:34:46.192Z,13.43
2018-01-14T17:37:12.433Z,12.23
2018-01-14T17:39:38.619Z,12.43
2018-01-14T17:42:04.876Z,11.60
2018-01-14T17:44:31.042Z,10.50
2018-01-14T17:46:58.014Z,9.30
2018-01-14T17:49:24.198Z,10.77
2018-01-14T17:51:50.622Z,8.63
2018-01-14T17:54:16.866Z,11.17
2018-01-14T17:56:43.982Z,9.77
2018-01-14T17:59:10.459Z,13.17
2018-01-14T18:01:37.473Z,10.70
2018-01-14T18:04:05.190Z,10.73
2018-01-14T18:06:31.423Z,9.50
2018-01-14T18:08:57.771Z,7.93
2018-01-14T18:11:24.536Z,8.63
2018-01-14T18:13:51.605Z,8.00
2018-01-14T18:16:18.640Z,7.27
2018-01-14T18:18:45.581Z,11.10
2018-01-14T18:21:12.961Z,10.00
2018-01-14T18:23:40.109Z,10.40
2018-01-14T18:26:06.325Z,11.10
2018-01-14T18:28:33.344Z,11.47
2018-01-14T18:31:00.350Z,11.03
2018-01-14T18:33:26.596Z,11.23
2018-01-14T18:35:52.787Z,11.10
2018-01-14T18:38:19.357Z,9.47
2018-01-14T18:40:45.569Z,10.70
2018-01-14T18:43:11.798Z,9.67
2018-01-14T18:45:50.515Z,10.63
2018-01-14T18:48:17.054Z,9.80
2018-01-14T18:50:43.906Z,9.13
2018-01-14T18:53:10.751Z,11.03
2018-01-14T18:55:36.959Z,10.10
2018-01-14T18:58:03.137Z,10.17
2018-01-14T19:00:30.133Z,9.77
2018-01-14T19:02:56.976Z,9.00
2018-01-14T19:05:23.401Z,10.07
2018-01-14T19:07:49.653Z,10.17
2018-01-14T19:10:15.817Z,8.83
2018-01-14T19:12:42.184Z,8.63
2018-01-14T19:15:08.368Z,8.97
2018-01-14T19:17:35.373Z,9.20
2018-01-14T19:20:03.031Z,10.30
2018-01-14T19:22:29.336Z,9.93
2018-01-14T19:24:55.591Z,8.03
2018-01-14T19:27:21.836Z,7.90
2018-01-14T19:29:48.143Z,8.30
2018-01-14T19:32:14.396Z,7.83
2018-01-14T19:34:41.490Z,7.30
2018-01-14T19:37:08.764Z,6.70
2018-01-14T19:39:35.634Z,7.37
2018-01-14T19:42:02.566Z,7.07
2018-01-14T19:44:28.779Z,6.37
2018-01-14T19:46:55.922Z,7.10
2018-01-14T19:49:23.096Z,7.40
2018-01-14T19:51:49.544Z,8.30
2018-01-14T19:54:16.643Z,8.20
2018-01-14T19:56:42.819Z,9.17
2018-01-14T19:59:09.767Z,7.67
2018-01-14T20:01:36.779Z,7.90
2018-01-14T20:04:02.953Z,8.83
2018-01-14T20:06:29.902Z,7.60
2018-01-14T20:08:56.100Z,7.07
2018-01-14T20:11:22.679Z,7.60
2018-01-14T20:13:49.038Z,7.23
2018-01-14T20:16:16.695Z,7.00
2018-01-14T20:18:44.350Z,7.23
2018-01-14T20:21:10.995Z,10.00
2018-01-14T20:23:38.378Z,8.00
2018-01-14T20:26:04.727Z,7.20
2018-01-14T20:28:31.117Z,8.53
2018-01-14T20:30:58.143Z,8.37
2018-01-14T20:33:24.300Z,7.70
2018-01-14T20:35:51.230Z,8.47
2018-01-14T20:38:18.577Z,8.70
2018-01-14T20:40:44.794Z,7.87
2018-01-14T20:43:10.966Z,8.27
2018-01-14T20:45:37.439Z,8.00
2018-01-14T20:48:03.704Z,8.30
2018-01-14T20:50:30.762Z,8.60
2018-01-14T20:52:57.012Z,7.93
2018-01-14T20:55:23.341Z,8.97
2018-01-14T20:57:49.652Z,8.07
2018-01-14T21:00:16.251Z,8.63
2018-01-14T21:02:42.760Z,8.30
2018-01-14T21:05:08.905Z,8.90
2018-01-14T21:07:35.118Z,9.03
2018-01-14T21:10:01.255Z,9.73
2018-01-14T21:12:27.719Z,8.30
2018-01-14T21:14:54.948Z,8.70
2018-01-14T21:17:21.344Z,8.67
2018-01-14T21:19:47.544Z,8.43
2018-01-14T21:22:14.217Z,8.30
2018-01-14T21:24:40.463Z,8.27
2018-01-14T21:27:06.614Z,8.60
2018-01-14T21:29:33.744Z,8.30
2018-01-14T21:31:59.957Z,9.87
2018-01-14T21:34:26.219Z,8.73
2018-01-14T21:36:52.403Z,8.50
2018-01-14T21:39:18.615Z,8.27
2018-01-14T21:41:44.769Z,8.40
2018-01-14T21:44:12.631Z,8.70
2018-01-14T21:46:39.546Z,8.07
2018-01-14T21:49:05.776Z,7.50
2018-01-14T21:51:32.436Z,8.73
2018-01-14T21:53:59.508Z,8.20
2018-01-14T21:56:26.606Z,8.00
2018-01-14T21:58:52.980Z,7.60
2018-01-14T22:01:20.090Z,8.30
2018-01-14T22:03:46.170Z,8.77
2018-01-14T22:06:12.400Z,8.40
2018-01-14T22:08:38.593Z,8.67
2018-01-14T22:11:04.837Z,7.70
2018-01-14T22:13:31.854Z,7.40
2018-01-14T22:15:58.125Z,7.80
2018-01-14T22:18:24.439Z,8.00
2018-01-14T22:20:51.586Z,8.40
2018-01-14T22:23:18.486Z,7.77
2018-01-14T22:25:44.641Z,7.60
2018-01-14T22:28:11.684Z,7.20
2018-01-14T22:30:37.885Z,7.03
2018-01-14T22:33:04.057Z,6.97
2018-01-14T22:35:30.281Z,6.50
2018-01-14T22:37:56.567Z,6.80
2018-01-14T22:40:22.806Z,6.53
2018-01-14T22:42:48.977Z,6.17
2018-01-14T22:45:15.152Z,6.20
2018-01-14T22:47:42.095Z,6.20
2018-01-14T22:50:08.306Z,6.73
2018-01-14T22:52:34.529Z,6.53
2018-01-14T22:55:00.793Z,6.20
2018-01-14T22:57:27.843Z,5.77
2018-01-14T22:59:54.548Z,6.80
2018-01-14T23:02:20.769Z,6.20
2018-01-14T23:04:47.038Z,5.00
2018-01-14T23:07:14.259Z,6.30
2018-01-14T23:09:40.614Z,6.97
2018-01-14T23:12:07.555Z,7.10
2018-01-14T23:14:34.063Z,6.57
2018-01-14T23:17:00.259Z,6.53
2018-01-14T23:19:26.602Z,6.63
2018-01-14T23:21:52.840Z,5.50
2018-01-14T23:24:19.173Z,6.30
2018-01-14T23:26:45.396Z,5.90
2018-01-14T23:29:11.583Z,6.77
2018-01-14T23:31:38.036Z,5.90
2018-01-14T23:34:04.191Z,5.37
2018-01-14T23:36:30.509Z,5.70
2018-01-14T23:38:56.722Z,5.93
2018-01-14T23:41:22.932Z,6.13
2018-01-14T23:43:49.452Z,5.70
2018-01-14T23:46:15.687Z,6.50
2018-01-14T23:48:42.085Z,6.83
2018-01-14T23:51:08.991Z,6.53
2018-01-14T23:53:35.188Z,6.10
2018-01-14T23:56:01.415Z,6.23
2018-01-14T23:58:27.585Z,7.03
